sensor_id;sensor_type;location;lat;lon;timestamp;pressure;altitude;pressure_sealevel;temperature;humidity
35758;BME280;21879;50.110;18.900;2022-07-19T00:10:26;99294.02;;;17.43;57.52
35758;BME280;21879;50.110;18.900;2022-07-19T00:20:55;99296.45;;;17.44;57.78
35758;BME280;21879;50.110;18.900;2022-07-19T00:31:24;99300.03;;;17.60;58.04
35758;BME280;21879;50.110;18.900;2022-07-19T00:41:53;99296.27;;;17.63;57.92
35758;BME280;21879;50.110;18.900;2022-07-19T00:52:23;99290.39;;;17.59;57.91
35758;BME280;21879;50.110;18.900;2022-07-19T01:02:54;99295.88;;;17.52;57.99
35758;BME280;21879;50.110;18.900;2022-07-19T01:13:23;99292.21;;;17.45;58.32
35758;BME280;21879;50.110;18.900;2022-07-19T01:23:52;99299.41;;;17.45;58.38
35758;BME280;21879;50.110;18.900;2022-07-19T01:34:21;99298.93;;;17.37;58.47
35758;BME280;21879;50.110;18.900;2022-07-19T01:44:50;99295.59;;;17.24;58.40
35758;BME280;21879;50.110;18.900;2022-07-19T01:55:19;99295.48;;;17.02;58.42
35758;BME280;21879;50.110;18.900;2022-07-19T02:05:48;99287.02;;;16.96;58.95
35758;BME280;21879;50.110;18.900;2022-07-19T02:16:17;99292.84;;;17.08;59.12
35758;BME280;21879;50.110;18.900;2022-07-19T02:26:46;99297.02;;;17.10;58.86
35758;BME280;21879;50.110;18.900;2022-07-19T02:37:15;99296.73;;;17.07;58.99
35758;BME280;21879;50.110;18.900;2022-07-19T02:47:44;99293.21;;;16.94;58.91
35758;BME280;21879;50.110;18.900;2022-07-19T02:58:14;99298.63;;;16.74;59.06
35758;BME280;21879;50.110;18.900;2022-07-19T03:08:43;99304.63;;;16.64;59.34
35758;BME280;21879;50.110;18.900;2022-07-19T03:19:12;99301.07;;;16.45;59.49
35758;BME280;21879;50.110;18.900;2022-07-19T03:29:41;99312.50;;;16.22;59.79
35758;BME280;21879;50.110;18.900;2022-07-19T03:40:12;99320.71;;;16.24;60.05
35758;BME280;21879;50.110;18.900;2022-07-19T03:50:41;99328.21;;;16.25;60.30
35758;BME280;21879;50.110;18.900;2022-07-19T04:01:10;99333.88;;;16.30;60.46
35758;BME280;21879;50.110;18.900;2022-07-19T04:11:39;99342.89;;;16.28;60.55
35758;BME280;21879;50.110;18.900;2022-07-19T04:22:08;99346.00;;;16.30;60.73
35758;BME280;21879;50.110;18.900;2022-07-19T04:32:37;99345.42;;;16.40;60.67
35758;BME280;21879;50.110;18.900;2022-07-19T04:43:06;99342.01;;;16.43;60.65
35758;BME280;21879;50.110;18.900;2022-07-19T04:53:35;99337.69;;;16.48;61.41
35758;BME280;21879;50.110;18.900;2022-07-19T05:04:06;99331.80;;;16.67;61.83
35758;BME280;21879;50.110;18.900;2022-07-19T05:14:35;99325.92;;;16.93;61.96
35758;BME280;21879;50.110;18.900;2022-07-19T05:25:06;99332.09;;;17.25;62.58
35758;BME280;21879;50.110;18.900;2022-07-19T05:35:36;99335.92;;;18.26;63.39
35758;BME280;21879;50.110;18.900;2022-07-19T05:46:05;99332.50;;;19.16;61.50
35758;BME280;21879;50.110;18.900;2022-07-19T05:56:35;99319.95;;;19.91;59.62
35758;BME280;21879;50.110;18.900;2022-07-19T06:07:04;99310.73;;;20.65;57.92
35758;BME280;21879;50.110;18.900;2022-07-19T06:17:33;99307.05;;;21.51;56.88
35758;BME280;21879;50.110;18.900;2022-07-19T06:28:03;99308.85;;;22.47;54.76
35758;BME280;21879;50.110;18.900;2022-07-19T06:38:32;99299.51;;;23.00;51.69
35758;BME280;21879;50.110;18.900;2022-07-19T06:49:01;99296.47;;;22.97;50.92
35758;BME280;21879;50.110;18.900;2022-07-19T06:59:30;99296.56;;;23.36;50.62
35758;BME280;21879;50.110;18.900;2022-07-19T07:09:59;99296.48;;;23.88;49.43
35758;BME280;21879;50.110;18.900;2022-07-19T07:20:35;99296.95;;;24.50;48.40
35758;BME280;21879;50.110;18.900;2022-07-19T07:31:05;99286.67;;;25.02;46.69
35758;BME280;21879;50.110;18.900;2022-07-19T07:41:34;99280.91;;;25.59;45.80
35758;BME280;21879;50.110;18.900;2022-07-19T07:52:07;99287.27;;;26.19;45.09
35758;BME280;21879;50.110;18.900;2022-07-19T08:02:41;99279.27;;;26.66;42.49
35758;BME280;21879;50.110;18.900;2022-07-19T08:13:10;99271.95;;;26.87;41.06
35758;BME280;21879;50.110;18.900;2022-07-19T08:23:40;99265.54;;;27.00;39.69
35758;BME280;21879;50.110;18.900;2022-07-19T08:34:09;99259.71;;;27.33;39.09
35758;BME280;21879;50.110;18.900;2022-07-19T08:44:38;99262.67;;;27.50;38.30
35758;BME280;21879;50.110;18.900;2022-07-19T08:55:10;99263.21;;;27.70;37.23
35758;BME280;21879;50.110;18.900;2022-07-19T09:05:39;99254.26;;;27.80;35.65
35758;BME280;21879;50.110;18.900;2022-07-19T09:16:08;99254.29;;;27.98;35.14
35758;BME280;21879;50.110;18.900;2022-07-19T09:26:55;99250.60;;;28.14;34.27
35758;BME280;21879;50.110;18.900;2022-07-19T09:37:23;99252.59;;;28.21;34.10
35758;BME280;21879;50.110;18.900;2022-07-19T09:47:54;99235.02;;;28.28;34.28
35758;BME280;21879;50.110;18.900;2022-07-19T09:58:24;99227.53;;;28.23;33.08
35758;BME280;21879;50.110;18.900;2022-07-19T10:09:01;99225.20;;;28.17;33.14
35758;BME280;21879;50.110;18.900;2022-07-19T10:19:37;99222.59;;;28.30;33.58
35758;BME280;21879;50.110;18.900;2022-07-19T10:30:23;99218.98;;;28.38;33.66
35758;BME280;21879;50.110;18.900;2022-07-19T10:40:53;99210.59;;;28.43;33.36
35758;BME280;21879;50.110;18.900;2022-07-19T10:51:31;99203.05;;;28.50;32.33
35758;BME280;21879;50.110;18.900;2022-07-19T11:01:59;99198.13;;;28.61;32.79
35758;BME280;21879;50.110;18.900;2022-07-19T11:12:50;99191.77;;;28.69;32.80
35758;BME280;21879;50.110;18.900;2022-07-19T11:23:21;99182.73;;;28.79;32.92
35758;BME280;21879;50.110;18.900;2022-07-19T11:33:51;99177.63;;;28.83;32.33
35758;BME280;21879;50.110;18.900;2022-07-19T11:44:23;99176.17;;;28.88;32.21
35758;BME280;21879;50.110;18.900;2022-07-19T11:55:02;99170.54;;;28.82;31.32
35758;BME280;21879;50.110;18.900;2022-07-19T12:05:33;99163.16;;;28.87;32.56
35758;BME280;21879;50.110;18.900;2022-07-19T12:16:11;99153.20;;;28.98;31.49
35758;BME280;21879;50.110;18.900;2022-07-19T12:26:41;99149.48;;;29.00;31.44
35758;BME280;21879;50.110;18.900;2022-07-19T12:37:25;99147.14;;;29.10;31.51
35758;BME280;21879;50.110;18.900;2022-07-19T12:47:54;99140.30;;;29.08;31.28
35758;BME280;21879;50.110;18.900;2022-07-19T12:58:24;99134.98;;;29.05;30.65
35758;BME280;21879;50.110;18.900;2022-07-19T13:09:10;99126.86;;;29.06;31.12
35758;BME280;21879;50.110;18.900;2022-07-19T13:19:40;99116.63;;;29.06;31.46
35758;BME280;21879;50.110;18.900;2022-07-19T13:30:10;99106.17;;;29.09;31.43
35758;BME280;21879;50.110;18.900;2022-07-19T13:40:40;99111.06;;;29.11;31.75
35758;BME280;21879;50.110;18.900;2022-07-19T13:51:09;99102.77;;;29.09;31.17
35758;BME280;21879;50.110;18.900;2022-07-19T14:01:38;99097.04;;;29.11;31.28
35758;BME280;21879;50.110;18.900;2022-07-19T14:12:12;99088.87;;;29.08;30.90
35758;BME280;21879;50.110;18.900;2022-07-19T14:22:41;99083.80;;;29.09;30.70
35758;BME280;21879;50.110;18.900;2022-07-19T14:33:10;99074.44;;;29.07;31.04
35758;BME280;21879;50.110;18.900;2022-07-19T14:43:39;99063.81;;;29.08;31.04
35758;BME280;21879;50.110;18.900;2022-07-19T14:54:08;99055.34;;;29.07;31.03
35758;BME280;21879;50.110;18.900;2022-07-19T15:04:41;99052.78;;;29.03;31.29
35758;BME280;21879;50.110;18.900;2022-07-19T15:15:10;99050.09;;;28.98;31.01
35758;BME280;21879;50.110;18.900;2022-07-19T15:25:39;99048.40;;;28.97;31.26
35758;BME280;21879;50.110;18.900;2022-07-19T15:36:08;99049.22;;;28.93;32.02
35758;BME280;21879;50.110;18.900;2022-07-19T15:46:37;99043.77;;;28.83;31.68
35758;BME280;21879;50.110;18.900;2022-07-19T15:57:12;99035.15;;;28.79;32.89
35758;BME280;21879;50.110;18.900;2022-07-19T16:07:41;99025.16;;;28.71;32.02
35758;BME280;21879;50.110;18.900;2022-07-19T16:18:11;99018.73;;;28.67;32.12
35758;BME280;21879;50.110;18.900;2022-07-19T16:28:39;99009.60;;;28.65;31.82
35758;BME280;21879;50.110;18.900;2022-07-19T16:39:08;99004.60;;;28.58;31.34
35758;BME280;21879;50.110;18.900;2022-07-19T16:49:57;99001.38;;;28.53;32.51
35758;BME280;21879;50.110;18.900;2022-07-19T17:00:27;99005.66;;;28.51;32.82
35758;BME280;21879;50.110;18.900;2022-07-19T17:10:56;99001.13;;;28.45;32.94
35758;BME280;21879;50.110;18.900;2022-07-19T17:21:25;98991.77;;;28.39;33.83
35758;BME280;21879;50.110;18.900;2022-07-19T17:31:53;98991.02;;;28.30;34.84
35758;BME280;21879;50.110;18.900;2022-07-19T17:42:23;98991.10;;;28.15;35.69
35758;BME280;21879;50.110;18.900;2022-07-19T17:52:56;98992.48;;;27.93;36.42
35758;BME280;21879;50.110;18.900;2022-07-19T18:03:25;98997.30;;;27.68;37.99
35758;BME280;21879;50.110;18.900;2022-07-19T18:13:54;98999.39;;;27.45;39.24
35758;BME280;21879;50.110;18.900;2022-07-19T18:24:23;99010.60;;;27.22;39.92
35758;BME280;21879;50.110;18.900;2022-07-19T18:34:52;99016.33;;;26.87;41.29
35758;BME280;21879;50.110;18.900;2022-07-19T18:45:21;99017.13;;;26.42;42.84
35758;BME280;21879;50.110;18.900;2022-07-19T18:55:50;99023.25;;;26.07;42.57
35758;BME280;21879;50.110;18.900;2022-07-19T19:06:19;99036.28;;;25.77;43.81
35758;BME280;21879;50.110;18.900;2022-07-19T19:16:56;99047.45;;;25.46;44.79
35758;BME280;21879;50.110;18.900;2022-07-19T19:27:26;99052.25;;;25.04;46.00
35758;BME280;21879;50.110;18.900;2022-07-19T19:37:54;99058.80;;;24.67;46.26
35758;BME280;21879;50.110;18.900;2022-07-19T19:48:23;99065.36;;;24.38;46.47
35758;BME280;21879;50.110;18.900;2022-07-19T19:58:52;99071.05;;;24.05;47.46
35758;BME280;21879;50.110;18.900;2022-07-19T20:09:21;99070.48;;;23.72;48.16
35758;BME280;21879;50.110;18.900;2022-07-19T20:19:50;99079.29;;;23.48;47.62
35758;BME280;21879;50.110;18.900;2022-07-19T20:30:21;99083.52;;;23.29;48.12
35758;BME280;21879;50.110;18.900;2022-07-19T20:40:50;99093.55;;;23.08;48.85
35758;BME280;21879;50.110;18.900;2022-07-19T20:51:19;99090.69;;;22.85;50.12
35758;BME280;21879;50.110;18.900;2022-07-19T21:01:48;99087.48;;;22.55;50.99
35758;BME280;21879;50.110;18.900;2022-07-19T21:12:17;99089.54;;;22.29;51.32
35758;BME280;21879;50.110;18.900;2022-07-19T21:22:46;99091.97;;;22.08;51.58
35758;BME280;21879;50.110;18.900;2022-07-19T21:33:17;99093.83;;;21.89;52.61
35758;BME280;21879;50.110;18.900;2022-07-19T21:43:46;99103.16;;;21.72;53.29
35758;BME280;21879;50.110;18.900;2022-07-19T21:54:15;99106.45;;;21.55;53.38
35758;BME280;21879;50.110;18.900;2022-07-19T22:04:44;99112.00;;;21.43;53.66
35758;BME280;21879;50.110;18.900;2022-07-19T22:15:13;99109.21;;;21.22;54.15
35758;BME280;21879;50.110;18.900;2022-07-19T22:25:43;99105.55;;;21.02;54.06
35758;BME280;21879;50.110;18.900;2022-07-19T22:36:12;99111.90;;;20.90;54.31
35758;BME280;21879;50.110;18.900;2022-07-19T22:46:41;99120.87;;;20.72;54.49
35758;BME280;21879;50.110;18.900;2022-07-19T22:57:10;99133.08;;;20.55;54.75
35758;BME280;21879;50.110;18.900;2022-07-19T23:07:40;99127.10;;;20.37;55.44
35758;BME280;21879;50.110;18.900;2022-07-19T23:18:09;99131.24;;;20.27;55.25
35758;BME280;21879;50.110;18.900;2022-07-19T23:28:37;99128.89;;;20.15;55.29
35758;BME280;21879;50.110;18.900;2022-07-19T23:39:06;99132.49;;;20.01;55.66
35758;BME280;21879;50.110;18.900;2022-07-19T23:49:36;99137.75;;;19.80;55.91
